createdAt,value
2023-04-11T00:01:49.930Z,3.08
2023-04-11T00:04:17.954Z,3.30
2023-04-11T00:06:45.515Z,3.88
2023-04-11T00:09:12.912Z,3.53
2023-04-11T00:11:40.138Z,3.08
2023-04-11T00:14:08.944Z,3.33
2023-04-11T00:16:36.143Z,3.00
2023-04-11T00:19:03.946Z,3.60
2023-04-11T00:21:31.044Z,3.10
2023-04-11T00:23:58.131Z,3.38
2023-04-11T00:26:26.361Z,3.40
2023-04-11T00:28:53.768Z,3.50
2023-04-11T00:31:21.228Z,3.40
2023-04-11T00:33:48.454Z,3.25
2023-04-11T00:36:15.699Z,3.60
2023-04-11T00:38:44.815Z,3.33
2023-04-11T00:41:12.099Z,3.35
2023-04-11T00:43:39.239Z,3.20
2023-04-11T00:46:09.271Z,3.15
2023-04-11T00:48:36.864Z,3.42
2023-04-11T00:51:04.131Z,2.97
2023-04-11T00:53:32.906Z,3.17
2023-04-11T00:56:00.910Z,3.25
2023-04-11T00:58:29.030Z,3.50
2023-04-11T01:00:56.142Z,3.17
2023-04-11T01:03:23.821Z,3.00
2023-04-11T01:05:54.729Z,2.85
2023-04-11T01:08:23.204Z,3.33
2023-04-11T01:10:50.613Z,3.25
2023-04-11T01:13:20.448Z,3.22
2023-04-11T01:15:47.656Z,3.13
2023-04-11T01:18:15.633Z,3.25
2023-04-11T01:20:42.898Z,3.50
2023-04-11T01:23:11.475Z,3.33
2023-04-11T01:25:38.936Z,3.10
2023-04-11T01:28:09.348Z,3.38
2023-04-11T01:30:36.486Z,3.38
2023-04-11T01:33:03.723Z,3.45
2023-04-11T01:35:31.253Z,3.30
2023-04-11T01:37:59.321Z,3.30
2023-04-11T01:40:28.067Z,3.55
2023-04-11T01:42:55.560Z,3.50
2023-04-11T01:45:22.767Z,3.13
2023-04-11T01:47:52.260Z,3.10
2023-04-11T01:50:19.424Z,3.50
2023-04-11T01:52:46.950Z,3.28
2023-04-11T01:55:14.222Z,3.03
2023-04-11T01:57:42.396Z,3.15
2023-04-11T02:00:11.149Z,3.17
2023-04-11T02:02:45.937Z,3.60
2023-04-11T02:05:13.287Z,3.22
2023-04-11T02:07:40.303Z,3.05
2023-04-11T02:10:08.214Z,3.70
2023-04-11T02:12:35.347Z,3.20
2023-04-11T02:15:02.459Z,3.20
2023-04-11T02:17:31.293Z,3.28
2023-04-11T02:19:58.849Z,3.45
2023-04-11T02:22:26.098Z,3.33
2023-04-11T02:24:53.451Z,3.30
2023-04-11T02:27:20.555Z,3.17
2023-04-11T02:29:47.709Z,3.40
2023-04-11T02:32:16.385Z,3.10
2023-04-11T02:34:46.290Z,3.40
2023-04-11T02:37:13.425Z,3.28
2023-04-11T02:39:40.618Z,3.13
2023-04-11T02:42:07.689Z,2.90
2023-04-11T02:44:34.824Z,3.13
2023-04-11T02:47:02.313Z,2.95
2023-04-11T02:49:30.575Z,3.20
2023-04-11T02:51:58.948Z,3.25
2023-04-11T02:54:26.173Z,3.15
2023-04-11T02:56:55.939Z,3.20
2023-04-11T02:59:23.370Z,2.80
2023-04-11T03:01:50.597Z,3.00
2023-04-11T03:04:18.037Z,2.83
2023-04-11T03:06:58.954Z,3.38
2023-04-11T03:09:26.261Z,2.92
2023-04-11T03:11:53.375Z,2.70
2023-04-11T03:14:20.585Z,2.90
2023-04-11T03:16:47.651Z,2.60
2023-04-11T03:19:15.200Z,3.10
2023-04-11T03:21:42.945Z,2.90
2023-04-11T03:24:10.036Z,3.00
2023-04-11T03:26:37.267Z,3.10
2023-04-11T03:29:10.469Z,3.20
2023-04-11T03:31:50.522Z,3.00
2023-04-11T03:34:18.230Z,3.00
2023-04-11T03:36:45.699Z,2.83
2023-04-11T03:39:13.757Z,2.90
2023-04-11T03:41:41.105Z,3.45
2023-04-11T03:44:10.260Z,2.90
2023-04-11T03:46:37.798Z,2.80
2023-04-11T03:49:05.391Z,3.33
2023-04-11T03:51:32.837Z,2.80
2023-04-11T03:54:05.973Z,3.33
2023-04-11T03:56:36.803Z,2.75
2023-04-11T03:59:05.123Z,3.13
2023-04-11T04:01:45.195Z,2.95
2023-04-11T04:04:12.731Z,3.00
2023-04-11T04:06:46.036Z,3.03
2023-04-11T04:09:13.825Z,2.80
2023-04-11T04:11:50.970Z,3.17
2023-04-11T04:14:22.280Z,2.85
2023-04-11T04:16:49.891Z,3.00
2023-04-11T04:19:18.253Z,2.95
2023-04-11T04:21:47.134Z,2.63
2023-04-11T04:24:16.704Z,2.78
2023-04-11T04:27:02.106Z,2.70
2023-04-11T04:29:54.840Z,2.67
2023-04-11T04:35:09.624Z,3.05
2023-04-11T04:37:39.721Z,3.08
2023-04-11T04:40:26.375Z,3.00
2023-04-11T04:43:02.335Z,3.20
2023-04-11T04:45:58.915Z,2.60
2023-04-11T04:48:37.071Z,3.10
2023-04-11T04:51:05.628Z,2.60
2023-04-11T04:53:38.971Z,2.65
2023-04-11T04:56:08.756Z,2.83
2023-04-11T04:58:39.899Z,2.70
2023-04-11T05:01:11.460Z,2.58
2023-04-11T05:03:39.193Z,2.50
2023-04-11T05:06:11.688Z,2.90
2023-04-11T05:08:40.723Z,2.75
2023-04-11T05:11:10.552Z,3.13
2023-04-11T05:13:37.819Z,2.72
2023-04-11T05:16:06.364Z,2.70
2023-04-11T05:18:33.476Z,2.65
2023-04-11T05:21:01.562Z,2.40
2023-04-11T05:23:34.785Z,2.42
2023-04-11T05:26:03.697Z,2.30
2023-04-11T05:28:33.114Z,2.42
2023-04-11T05:31:01.642Z,2.58
2023-04-11T05:33:29.528Z,2.38
2023-04-11T05:35:57.771Z,2.40
2023-04-11T05:38:24.801Z,2.90
2023-04-11T05:40:52.093Z,2.67
2023-04-11T05:43:19.848Z,2.90
2023-04-11T05:45:48.181Z,2.80
2023-04-11T05:48:19.714Z,2.80
2023-04-11T05:50:48.180Z,2.55
2023-04-11T05:53:15.175Z,2.50
2023-04-11T05:55:42.391Z,2.80
2023-04-11T05:58:10.682Z,2.25
2023-04-11T06:00:38.475Z,2.83
2023-04-11T06:03:08.136Z,2.50
2023-04-11T06:05:36.191Z,2.55
2023-04-11T06:08:05.208Z,2.42
2023-04-11T06:10:33.496Z,2.50
2023-04-11T06:13:01.059Z,2.63
2023-04-11T06:15:28.502Z,3.00
2023-04-11T06:17:56.192Z,2.90
2023-04-11T06:20:23.965Z,2.67
2023-04-11T06:22:51.675Z,2.72
2023-04-11T06:25:20.443Z,2.60
2023-04-11T06:27:48.358Z,2.70
2023-04-11T06:30:15.672Z,2.55
2023-04-11T06:32:42.961Z,2.67
2023-04-11T06:35:10.300Z,2.70
2023-04-11T06:37:37.584Z,2.67
2023-04-11T06:40:08.251Z,3.22
2023-04-11T06:42:35.628Z,2.50
2023-04-11T06:45:02.898Z,2.40
2023-04-11T06:47:30.929Z,2.33
2023-04-11T06:49:58.111Z,2.40
2023-04-11T06:52:27.588Z,2.47
2023-04-11T06:54:55.256Z,2.53
2023-04-11T06:57:22.483Z,2.35
2023-04-11T06:59:49.752Z,2.40
2023-04-11T07:02:17.083Z,2.45
2023-04-11T07:04:44.709Z,2.80
2023-04-11T07:07:11.981Z,2.58
2023-04-11T07:09:39.241Z,2.78
2023-04-11T07:12:06.727Z,2.45
2023-04-11T07:14:33.761Z,2.58
2023-04-11T07:17:01.744Z,3.03
2023-04-11T07:19:28.900Z,3.20
2023-04-11T07:21:57.072Z,3.80
2023-04-11T07:24:24.204Z,3.33
2023-04-11T07:26:52.365Z,3.28
2023-04-11T07:29:20.258Z,3.30
2023-04-11T07:31:47.400Z,2.85
2023-04-11T07:34:14.633Z,3.58
2023-04-11T07:36:42.233Z,2.95
2023-04-11T07:39:12.387Z,2.95
2023-04-11T07:41:39.800Z,2.95
2023-04-11T07:44:07.984Z,2.42
2023-04-11T07:46:35.735Z,2.80
2023-04-11T07:49:02.994Z,3.00
2023-04-11T07:51:30.275Z,2.90
2023-04-11T07:53:57.614Z,3.53
2023-04-11T07:56:24.815Z,3.45
2023-04-11T07:58:51.935Z,3.70
2023-04-11T08:01:27.099Z,3.30
2023-04-11T08:03:56.085Z,3.20
2023-04-11T08:06:24.058Z,2.95
2023-04-11T08:08:51.722Z,2.90
2023-04-11T08:11:18.902Z,2.72
2023-04-11T08:13:46.217Z,2.80
2023-04-11T08:16:15.456Z,2.60
2023-04-11T08:18:42.970Z,2.90
2023-04-11T08:21:13.612Z,2.92
2023-04-11T08:23:42.475Z,2.83
2023-04-11T08:26:12.440Z,3.20
2023-04-11T08:28:42.386Z,2.75
2023-04-11T08:31:10.900Z,3.03
2023-04-11T08:33:39.322Z,3.00
2023-04-11T08:36:10.659Z,2.97
2023-04-11T08:38:39.602Z,2.97
2023-04-11T08:41:07.067Z,3.10
2023-04-11T08:43:40.014Z,2.70
2023-04-11T08:46:08.796Z,3.40
2023-04-11T08:48:36.257Z,2.67
2023-04-11T08:51:03.427Z,3.10
2023-04-11T08:53:30.972Z,3.00
2023-04-11T08:56:00.054Z,3.35
2023-04-11T08:58:27.484Z,3.08
2023-04-11T09:00:54.843Z,3.35
2023-04-11T09:03:22.130Z,3.35
2023-04-11T09:05:49.944Z,3.03
2023-04-11T09:08:17.768Z,3.30
2023-04-11T09:10:45.902Z,3.53
2023-04-11T09:13:26.125Z,2.70
2023-04-11T09:16:13.366Z,2.83
2023-04-11T09:18:46.933Z,2.80
2023-04-11T09:21:16.138Z,2.85
2023-04-11T09:23:44.363Z,3.00
2023-04-11T09:26:13.120Z,2.95
2023-04-11T09:28:54.049Z,2.50
2023-04-11T09:31:23.348Z,3.25
2023-04-11T09:33:58.824Z,3.40
2023-04-11T09:36:30.494Z,3.83
2023-04-11T09:38:58.355Z,3.67
2023-04-11T09:41:38.934Z,3.38
2023-04-11T09:44:06.238Z,4.03
2023-04-11T09:46:33.376Z,3.78
2023-04-11T09:49:02.161Z,3.25
2023-04-11T09:51:36.356Z,3.25
2023-04-11T09:54:06.090Z,3.55
2023-04-11T09:56:36.775Z,3.55
2023-04-11T09:59:05.185Z,3.55
2023-04-11T10:01:32.770Z,3.47
2023-04-11T10:04:01.493Z,3.67
2023-04-11T10:06:34.513Z,3.05
2023-04-11T10:09:08.483Z,3.15
2023-04-11T10:11:36.708Z,3.17
2023-04-11T10:14:04.287Z,2.80
2023-04-11T10:16:34.412Z,2.70
2023-04-11T10:19:04.438Z,2.75
2023-04-11T10:21:32.951Z,2.50
2023-04-11T10:24:17.844Z,2.55
2023-04-11T10:27:01.223Z,3.03
2023-04-11T10:29:28.631Z,2.88
2023-04-11T10:32:20.492Z,2.55
2023-04-11T10:34:50.765Z,2.83
2023-04-11T10:37:19.344Z,2.75
2023-04-11T10:39:52.419Z,2.90
2023-04-11T10:42:30.493Z,3.20
2023-04-11T10:45:24.063Z,2.65
2023-04-11T10:47:57.412Z,2.60
2023-04-11T10:50:27.701Z,2.65
2023-04-11T10:52:56.761Z,3.00
2023-04-11T10:55:27.053Z,3.08
2023-04-11T10:58:10.312Z,3.30
2023-04-11T11:00:48.227Z,2.75
2023-04-11T11:03:17.632Z,2.28
2023-04-11T11:05:45.648Z,2.53
2023-04-11T11:08:13.154Z,2.63
2023-04-11T11:10:46.495Z,2.50
2023-04-11T11:13:17.500Z,2.63
2023-04-11T11:15:49.676Z,2.63
2023-04-11T11:18:16.999Z,2.40
2023-04-11T11:20:44.971Z,2.55
2023-04-11T11:23:12.093Z,2.92
2023-04-11T11:25:39.326Z,2.45
2023-04-11T11:28:08.350Z,2.47
2023-04-11T11:30:37.298Z,2.70
2023-04-11T11:33:18.330Z,2.30
2023-04-11T11:35:59.452Z,2.60
2023-04-11T11:38:28.869Z,2.60
2023-04-11T11:40:57.465Z,2.80
2023-04-11T11:43:28.096Z,2.58
2023-04-11T11:46:16.845Z,2.47
2023-04-11T11:49:02.239Z,2.58
2023-04-11T11:51:49.693Z,3.00
2023-04-11T11:54:17.262Z,2.72
2023-04-11T11:56:50.854Z,2.72
2023-04-11T11:59:27.440Z,3.40
2023-04-11T12:01:54.649Z,3.17
2023-04-11T12:04:22.138Z,3.05
2023-04-11T12:06:49.251Z,3.25
2023-04-11T12:09:16.848Z,3.45
2023-04-11T12:11:45.977Z,3.00
2023-04-11T12:14:23.065Z,2.80
2023-04-11T12:16:54.693Z,3.20
2023-04-11T12:19:22.116Z,2.75
2023-04-11T12:21:49.229Z,2.40
2023-04-11T12:24:16.362Z,3.40
2023-04-11T12:26:57.339Z,3.85
2023-04-11T12:29:30.906Z,2.88
2023-04-11T12:31:58.037Z,2.60
2023-04-11T12:34:26.029Z,2.60
2023-04-11T12:36:53.054Z,2.70
2023-04-11T12:39:20.852Z,2.33
2023-04-11T12:41:47.997Z,2.70
2023-04-11T12:44:14.990Z,2.67
2023-04-11T12:46:42.496Z,2.38
2023-04-11T12:49:09.605Z,2.08
2023-04-11T12:51:37.072Z,2.50
2023-04-11T12:54:04.943Z,2.35
2023-04-11T12:56:32.771Z,2.30
2023-04-11T12:58:59.817Z,2.30
2023-04-11T13:01:27.492Z,2.38
2023-04-11T13:03:55.883Z,2.35
2023-04-11T13:06:23.460Z,2.25
2023-04-11T13:08:50.864Z,2.20
2023-04-11T13:11:17.949Z,2.05
2023-04-11T13:13:45.309Z,2.42
2023-04-11T13:16:12.957Z,2.50
2023-04-11T13:18:40.040Z,2.28
2023-04-11T13:21:07.906Z,2.60
2023-04-11T13:23:35.901Z,2.25
2023-04-11T13:26:04.185Z,2.55
2023-04-11T13:28:32.052Z,3.13
2023-04-11T13:30:59.217Z,2.70
2023-04-11T13:33:27.333Z,2.30
2023-04-11T13:35:54.372Z,2.50
2023-04-11T13:38:21.987Z,2.65
2023-04-11T13:40:49.144Z,2.45
2023-04-11T13:43:16.216Z,2.38
2023-04-11T13:45:43.467Z,2.58
2023-04-11T13:48:11.144Z,2.50
2023-04-11T13:50:38.329Z,2.60
2023-04-11T13:53:05.744Z,2.80
2023-04-11T13:55:35.395Z,2.70
2023-04-11T13:58:02.475Z,2.67
2023-04-11T14:00:29.493Z,2.33
2023-04-11T14:02:56.851Z,2.17
2023-04-11T14:05:26.228Z,2.33
2023-04-11T14:07:53.427Z,2.30
2023-04-11T14:10:20.537Z,2.42
2023-04-11T14:12:47.621Z,2.30
2023-04-11T14:15:14.813Z,2.30
2023-04-11T14:17:44.089Z,2.15
2023-04-11T14:20:11.879Z,2.42
2023-04-11T14:22:43.687Z,2.20
2023-04-11T14:25:13.907Z,2.58
2023-04-11T14:27:42.780Z,2.30
2023-04-11T14:30:12.386Z,2.38
2023-04-11T14:32:41.951Z,2.40
2023-04-11T14:35:09.942Z,2.58
2023-04-11T14:37:37.308Z,2.38
2023-04-11T14:40:11.285Z,2.17
2023-04-11T14:42:42.813Z,2.42
2023-04-11T14:45:10.287Z,2.40
2023-04-11T14:47:37.959Z,2.85
2023-04-11T14:50:05.801Z,2.40
2023-04-11T14:52:32.938Z,2.42
2023-04-11T14:55:00.278Z,2.40
2023-04-11T14:57:47.080Z,2.95
2023-04-11T15:00:20.336Z,2.75
2023-04-11T15:02:52.087Z,2.53
2023-04-11T15:05:20.406Z,2.80
2023-04-11T15:07:49.521Z,2.80
2023-04-11T15:10:22.427Z,3.00
2023-04-11T15:12:49.570Z,3.53
2023-04-11T15:15:18.290Z,3.25
2023-04-11T15:18:11.578Z,3.58
2023-04-11T15:20:38.707Z,2.53
2023-04-11T15:23:07.017Z,2.67
2023-04-11T15:25:35.817Z,3.30
2023-04-11T15:28:04.491Z,3.17
2023-04-11T15:30:31.791Z,3.22
2023-04-11T15:32:59.027Z,3.72
2023-04-11T15:35:26.323Z,3.15
2023-04-11T15:37:55.781Z,3.72
2023-04-11T15:40:24.172Z,2.70
2023-04-11T15:42:51.301Z,3.20
2023-04-11T15:45:18.895Z,2.60
2023-04-11T15:47:46.005Z,2.40
2023-04-11T15:50:14.855Z,3.20
2023-04-11T15:52:42.981Z,3.03
2023-04-11T15:55:10.304Z,2.63
2023-04-11T15:57:37.399Z,3.30
2023-04-11T16:00:09.637Z,2.90
2023-04-11T16:02:37.913Z,2.70
2023-04-11T16:05:07.914Z,3.03
2023-04-11T16:07:37.591Z,2.80
2023-04-11T16:10:06.017Z,2.58
2023-04-11T16:12:33.337Z,2.75
2023-04-11T16:15:00.863Z,2.80
2023-04-11T16:17:28.500Z,3.08
2023-04-11T16:19:55.739Z,3.05
2023-04-11T16:22:23.366Z,3.35
2023-04-11T16:24:50.636Z,3.63
2023-04-11T16:27:21.016Z,3.92
2023-04-11T16:29:48.643Z,3.90
2023-04-11T16:32:19.913Z,4.13
2023-04-11T16:34:47.039Z,3.55
2023-04-11T16:37:14.181Z,3.55
2023-04-11T16:39:41.437Z,3.17
2023-04-11T16:42:08.485Z,3.60
2023-04-11T16:44:35.898Z,3.45
2023-04-11T16:47:03.996Z,3.10
2023-04-11T16:49:33.268Z,3.42
2023-04-11T16:52:00.309Z,2.95
2023-04-11T16:54:28.386Z,3.28
2023-04-11T16:56:56.470Z,3.20
2023-04-11T16:59:23.960Z,3.30
2023-04-11T17:01:54.366Z,4.10
2023-04-11T17:04:21.693Z,4.38
2023-04-11T17:06:49.070Z,3.53
2023-04-11T17:09:17.654Z,3.10
2023-04-11T17:11:45.465Z,3.00
2023-04-11T17:14:12.535Z,3.08
2023-04-11T17:16:39.800Z,3.00
2023-04-11T17:19:07.061Z,2.85
2023-04-11T17:21:34.278Z,3.15
2023-04-11T17:24:01.686Z,3.03
2023-04-11T17:26:29.283Z,3.30
2023-04-11T17:29:00.116Z,2.70
2023-04-11T17:31:29.354Z,2.83
2023-04-11T17:33:56.900Z,2.92
2023-04-11T17:36:24.785Z,2.75
2023-04-11T17:38:54.954Z,2.95
2023-04-11T17:41:22.970Z,2.90
2023-04-11T17:43:50.196Z,3.20
2023-04-11T17:46:18.190Z,2.95
2023-04-11T17:48:45.649Z,2.75
2023-04-11T17:51:13.313Z,2.75
2023-04-11T17:53:41.204Z,2.83
2023-04-11T17:56:08.732Z,2.33
2023-04-11T17:58:35.953Z,2.60
2023-04-11T18:01:06.034Z,3.05
2023-04-11T18:03:35.072Z,2.42
2023-04-11T18:06:03.450Z,2.83
2023-04-11T18:08:49.236Z,2.88
2023-04-11T18:11:17.302Z,2.70
2023-04-11T18:13:45.921Z,2.60
2023-04-11T18:16:16.262Z,2.45
2023-04-11T18:18:43.466Z,2.33
2023-04-11T18:21:11.030Z,2.95
2023-04-11T18:23:38.776Z,2.65
2023-04-11T18:26:06.040Z,2.85
2023-04-11T18:28:33.185Z,2.50
2023-04-11T18:31:00.538Z,3.08
2023-04-11T18:33:28.055Z,2.70
2023-04-11T18:35:55.402Z,2.88
2023-04-11T18:38:23.305Z,2.47
2023-04-11T18:40:54.982Z,2.47
2023-04-11T18:43:22.832Z,2.95
2023-04-11T18:45:50.627Z,2.47
2023-04-11T18:48:17.775Z,2.60
2023-04-11T18:50:48.771Z,2.78
2023-04-11T18:53:16.436Z,2.95
2023-04-11T18:55:43.677Z,2.60
2023-04-11T18:58:14.484Z,2.80
2023-04-11T19:00:43.626Z,3.08
2023-04-11T19:03:15.609Z,2.75
2023-04-11T19:05:45.114Z,2.88
2023-04-11T19:08:12.438Z,2.75
2023-04-11T19:10:39.491Z,2.70
2023-04-11T19:13:06.993Z,2.80
2023-04-11T19:15:34.479Z,2.97
2023-04-11T19:18:01.948Z,2.72
2023-04-11T19:20:29.816Z,3.10
2023-04-11T19:22:57.148Z,2.60
2023-04-11T19:25:25.094Z,3.03
2023-04-11T19:27:52.128Z,3.20
2023-04-11T19:30:19.262Z,3.08
2023-04-11T19:32:48.184Z,2.95
2023-04-11T19:35:15.642Z,2.83
2023-04-11T19:37:42.891Z,2.60
2023-04-11T19:40:16.824Z,3.00
2023-04-11T19:42:45.038Z,2.60
2023-04-11T19:45:12.437Z,2.95
2023-04-11T19:47:41.132Z,2.70
2023-04-11T19:50:13.229Z,2.80
2023-04-11T19:52:44.001Z,2.92
2023-04-11T19:55:12.501Z,2.88
2023-04-11T19:57:40.873Z,2.70
2023-04-11T20:00:12.477Z,2.63
2023-04-11T20:02:47.023Z,3.05
2023-04-11T20:05:16.639Z,2.85
2023-04-11T20:07:44.301Z,2.63
2023-04-11T20:10:12.876Z,2.97
2023-04-11T20:12:40.598Z,2.60
2023-04-11T20:15:08.532Z,2.90
2023-04-11T20:17:36.463Z,2.80
2023-04-11T20:20:08.742Z,2.65
2023-04-11T20:22:38.464Z,2.50
2023-04-11T20:25:11.723Z,3.17
2023-04-11T20:27:41.093Z,2.80
2023-04-11T20:30:12.384Z,2.63
2023-04-11T20:32:41.110Z,2.50
2023-04-11T20:35:10.150Z,2.78
2023-04-11T20:37:38.287Z,3.25
2023-04-11T20:40:13.903Z,2.88
2023-04-11T20:42:42.823Z,2.80
2023-04-11T20:45:15.806Z,2.80
2023-04-11T20:47:48.067Z,2.45
2023-04-11T20:50:16.807Z,2.58
2023-04-11T20:52:46.102Z,2.83
2023-04-11T20:55:14.601Z,2.95
2023-04-11T20:57:42.516Z,2.78
2023-04-11T21:00:13.866Z,2.63
2023-04-11T21:02:44.382Z,2.80
2023-04-11T21:05:14.071Z,2.88
2023-04-11T21:07:42.279Z,2.92
2023-04-11T21:10:10.280Z,2.63
2023-04-11T21:12:37.942Z,2.40
2023-04-11T21:15:05.509Z,2.58
2023-04-11T21:17:35.282Z,2.42
2023-04-11T21:20:10.477Z,2.92
2023-04-11T21:22:37.564Z,2.28
2023-04-11T21:25:04.995Z,2.75
2023-04-11T21:27:33.060Z,2.83
2023-04-11T21:30:00.413Z,2.70
2023-04-11T21:32:28.302Z,2.53
2023-04-11T21:34:55.369Z,2.63
2023-04-11T21:37:22.500Z,2.75
2023-04-11T21:39:49.546Z,2.40
2023-04-11T21:42:16.615Z,2.70
2023-04-11T21:44:43.733Z,2.38
2023-04-11T21:47:11.389Z,2.50
2023-04-11T21:49:38.860Z,2.58
2023-04-11T21:52:06.383Z,2.33
2023-04-11T21:54:34.279Z,1.95
2023-04-11T21:57:01.844Z,2.20
2023-04-11T21:59:28.896Z,2.30
2023-04-11T22:01:56.483Z,2.35
2023-04-11T22:04:23.904Z,2.30
2023-04-11T22:06:51.061Z,2.50
2023-04-11T22:09:18.350Z,2.22
2023-04-11T22:11:45.488Z,2.40
2023-04-11T22:14:16.199Z,2.47
2023-04-11T22:16:49.247Z,2.35
2023-04-11T22:19:20.886Z,2.60
2023-04-11T22:21:49.089Z,2.05
2023-04-11T22:24:16.465Z,2.22
2023-04-11T22:26:49.043Z,2.00
2023-04-11T22:29:18.430Z,2.15
2023-04-11T22:31:47.858Z,4.15
2023-04-11T22:34:15.048Z,2.22
2023-04-11T22:36:42.118Z,2.03
2023-04-11T22:39:09.570Z,2.38
2023-04-11T22:41:38.740Z,2.05
2023-04-11T22:44:06.665Z,2.47
2023-04-11T22:46:38.845Z,1.90
2023-04-11T22:49:09.905Z,2.00
2023-04-11T22:51:38.736Z,2.05
2023-04-11T22:54:05.854Z,1.65
2023-04-11T22:56:34.453Z,2.30
2023-04-11T22:59:01.718Z,1.95
2023-04-11T23:01:28.824Z,2.42
2023-04-11T23:03:57.724Z,2.20
2023-04-11T23:06:25.377Z,2.00
2023-04-11T23:08:54.146Z,2.10
2023-04-11T23:11:21.402Z,2.15
2023-04-11T23:13:48.430Z,2.13
2023-04-11T23:16:15.575Z,2.47
2023-04-11T23:18:42.667Z,2.20
2023-04-11T23:21:14.456Z,2.40
2023-04-11T23:23:41.976Z,2.60
2023-04-11T23:26:09.358Z,2.60
2023-04-11T23:28:36.579Z,2.25
2023-04-11T23:31:03.800Z,2.65
2023-04-11T23:33:31.066Z,2.63
2023-04-11T23:35:58.456Z,2.40
2023-04-11T23:38:25.653Z,2.97
2023-04-11T23:40:52.930Z,2.90
2023-04-11T23:43:19.895Z,2.58
2023-04-11T23:45:47.399Z,2.47
2023-04-11T23:48:14.433Z,2.72
2023-04-11T23:50:41.441Z,2.15
2023-04-11T23:53:08.613Z,2.88
2023-04-11T23:55:35.815Z,3.00
2023-04-11T23:58:03.792Z,2.85
